Phoenix, AZ

11:00 PM MST on July 23, 2017 (GMT -0700)
Werner Ent. Phoenix | | Change Station

Elev 1031 ft 33.42 °N, 112.16 °W | Updated 4 minutes ago

Rain
Rain
78.7 °F
Feels Like 82 °F
N
0.0
Wind Variable Wind from South
Gusts 6.0 mph

Today
High -- | Low -- °F
--% Chance of Precip.
Yesterday
High -- | Low -- °F
Precip. -- in
Pressure 29.83 in
Visibility 10.0 miles
Clouds Scattered Clouds 7500 ft
Scattered Clouds 11000 ft
Mostly Cloudy 13000 ft
Overcast 20000 ft
Heat Index 82 °F
Dew Point 72 °F
Humidity 81%
Rainfall 0.00 in
Snow Depth Not available.
5:35 AM 7:34 PM
New Moon, 1% visible
METAR KPHX 240551Z 08009KT 10SM -RA SCT075 SCT110 BKN130 OVC200 25/22 A2989 RMK AO2 SLP102 P0001 60020 T02500222 10394 20244 53007
Pressure 29.83 in
Visibility 10.0 miles
Clouds Scattered Clouds 7500 ft
Scattered Clouds 11000 ft
Mostly Cloudy 13000 ft
Overcast 20000 ft
Heat Index 82 °F
Dew Point 72 °F
Humidity 81%
Rainfall 0.00 in
Snow Depth Not available.
5:35 AM 7:34 PM
New Moon, 1% visible
METAR KPHX 240551Z 08009KT 10SM -RA SCT075 SCT110 BKN130 OVC200 25/22 A2989 RMK AO2 SLP102 P0001 60020 T02500222 10394 20244 53007

Get Severe Weather Alerts

Thanks for signing up!

Be on the lookout for a verification email in your inbox.

You'll start receiving the daily forecast at 6 AM.

×

10-Day Weather Forecast

Almanac

Astronomy

Jul. 23, 2017 Rise Set
Actual Time
Civil Twilight
Nautical Twilight
Astronomical Twilight
Moon
Length of Visible Light
Length of Day
Tomorrow will be .
, % of the Moon is Illuminated

Today's Extremes

State Highs State Lows

Community

WunderPhotos

Category 6

Welcome to Category 6. This is the collective home for Weather Underground's featured writeups by Dr. Jeff Masters (right), Bob Henson (left), Chris Burt, and other regular contributors.

Nearby

Air Quality

  Air Quality AQ Index Pollutant
Not available.

Snow Depth

Station Depth Elevation

Earthquake Activity

City Distance Mag. Time & Date
Minimum magnitude displayed is 2.5.

Coastal Water Temperatures

Place Temperature

Stations

Nearby Weather Stations

Station Location Temp. Windchill Dew Point Humidity Wind Precip. Elev Updated Type
                   

Watches & Warnings

There are currently no watches in effect.